Time;durP1;ratioP1;P1;durP2;ratioP2;P2;SDS_P1;SDS_P2;PMS_P1;PMS_P2;Temp;Humidity;BMP_temperature;BMP_pressure;BME280_temperature;BME280_humidity;BME280_pressure;Samples;Min_cycle;Max_cycle;Signal;HPM_P1;HPM_P2
2023/09/15 00:00:21;;;;;;;7.97;3.70;;;563.80;2432.00;;;;;;5030993;28;20021;-75
2023/09/15 00:02:47;;;;;;;6.35;3.60;;;563.70;2432.00;;;;;;5034022;28;20053;-75
2023/09/15 00:05:15;;;;;;;5.43;3.38;;;563.70;2432.00;;;;;;5033731;28;20434;-75
2023/09/15 00:07:40;;;;;;;6.78;3.75;;;563.50;2432.00;;;;;;5033673;28;20112;-75
2023/09/15 00:10:07;;;;;;;4.07;3.15;;;563.40;2432.00;;;;;;5033575;28;20153;-76
2023/09/15 00:12:34;;;;;;;5.18;3.38;;;563.40;2432.00;;;;;;5033533;28;20420;-75
2023/09/15 00:15:07;;;;;;;9.45;3.20;;;563.40;2432.00;;;;;;5020384;28;20091;-75
2023/09/15 00:17:35;;;;;;;4.97;3.38;;;563.40;2432.00;;;;;;5033612;28;20022;-76
2023/09/15 00:20:01;;;;;;;11.13;3.53;;;563.20;2432.00;;;;;;5033070;28;20440;-76
2023/09/15 00:22:26;;;;;;;6.78;3.65;;;563.20;2432.00;;;;;;5021103;28;20022;-76
2023/09/15 00:24:55;;;;;;;9.02;3.80;;;;;;;;;;5032206;28;20110;-75
2023/09/15 00:27:21;;;;;;;8.80;3.83;;;538.50;2406.40;;;;;;5033365;28;20108;-76
2023/09/15 00:29:46;;;;;;;7.53;4.07;;;538.40;2406.40;;;;;;5033289;28;20089;-75
2023/09/15 00:32:12;;;;;;;5.55;3.85;;;538.40;2406.40;;;;;;5033391;28;20025;-75
2023/09/15 00:34:38;;;;;;;6.70;4.53;;;538.40;2406.40;;;;;;5033381;28;20108;-76
2023/09/15 00:37:03;;;;;;;6.28;4.13;;;538.40;2406.40;;;;;;5020350;28;20089;-76
2023/09/15 00:39:29;;;;;;;6.85;3.67;;;538.50;2406.40;;;;;;5032605;28;20033;-76
2023/09/15 00:41:55;;;;;;;7.15;4.50;;;538.50;2406.40;;;;;;5033281;28;20029;-75
2023/09/15 00:44:20;;;;;;;10.73;4.50;;;538.50;2406.40;;;;;;5033073;28;20414;-76
2023/09/15 00:46:46;;;;;;;9.30;4.43;;;538.50;2406.40;;;;;;5033014;28;20029;-75
2023/09/15 00:49:12;;;;;;;12.43;4.53;;;563.30;2432.00;;;;;;5032947;28;20029;-76
2023/09/15 00:51:38;;;;;;;7.13;3.50;;;563.30;2432.00;;;;;;5033338;28;20033;-76
2023/09/15 00:54:03;;;;;;;4.95;3.20;;;563.30;2432.00;;;;;;5032930;28;20393;-76
2023/09/15 00:56:29;;;;;;;5.95;3.50;;;563.30;2432.00;;;;;;5033046;28;20028;-76
2023/09/15 00:58:55;;;;;;;5.43;3.47;;;563.30;2432.00;;;;;;5026786;28;20080;-76
2023/09/15 01:01:21;;;;;;;9.60;4.07;;;563.30;2432.00;;;;;;5026157;28;20108;-76
2023/09/15 01:03:47;;;;;;;5.32;3.97;;;563.30;2432.00;;;;;;5032289;28;20057;-75
2023/09/15 01:06:14;;;;;;;5.45;3.47;;;563.30;2432.00;;;;;;5040976;28;20045;-76
2023/09/15 01:08:41;;;;;;;6.07;3.78;;;563.30;2432.00;;;;;;5032803;28;20014;-76
2023/09/15 01:11:07;;;;;;;6.15;3.58;;;538.50;2406.40;;;;;;5033224;28;20022;-76
2023/09/15 01:13:34;;;;;;;5.15;2.90;;;538.50;2406.40;;;;;;5033003;28;20516;-76
2023/09/15 01:16:39;;;;;;;6.75;3.30;;;538.50;2406.40;;;;;;5032717;28;20025;-76
2023/09/15 01:19:30;;;;;;;4.45;3.25;;;538.40;2406.40;;;;;;4979785;28;20026;-76
2023/09/15 01:21:56;;;;;;;4.22;3.00;;;538.40;2406.40;;;;;;4987734;28;20137;-76
2023/09/15 01:24:46;;;;;;;5.70;2.80;;;538.30;2406.40;;;;;;4976143;28;20110;-75
2023/09/15 01:27:26;;;;;;;6.30;3.33;;;538.30;2406.40;;;;;;4972332;28;20088;-76
2023/09/15 01:29:57;;;;;;;3.90;2.92;;;538.30;2406.40;;;;;;4971857;28;20023;-76
2023/09/15 01:32:24;;;;;;;6.80;3.70;;;538.30;2406.40;;;;;;4972666;28;20471;-76
2023/09/15 01:34:52;;;;;;;7.50;4.97;;;538.40;2406.40;;;;;;4990008;28;20034;-76
2023/09/15 01:37:18;;;;;;;14.25;8.13;;;538.40;2406.40;;;;;;4963680;28;20086;-76
2023/09/15 01:39:44;;;;;;;17.33;11.60;;;538.40;2406.40;;;;;;4963499;28;20034;-76
2023/09/15 01:42:10;;;;;;;17.77;14.05;;;538.40;2406.40;;;;;;4976888;28;20026;-76
2023/09/15 01:44:35;;;;;;;17.90;13.18;;;538.40;2406.40;;;;;;4971925;28;20189;-76
2023/09/15 01:47:01;;;;;;;15.80;11.55;;;538.40;2406.40;;;;;;4955276;28;20045;-76
2023/09/15 01:49:28;;;;;;;14.63;10.23;;;538.30;2406.40;;;;;;4971674;28;20045;-76
2023/09/15 01:51:55;;;;;;;10.82;8.40;;;538.30;2406.40;;;;;;4975995;28;20130;-76
2023/09/15 01:54:21;;;;;;;14.40;9.02;;;538.20;2406.40;;;;;;5024858;28;20029;-76
2023/09/15 01:56:49;;;;;;;13.00;6.75;;;538.20;2406.40;;;;;;5023163;28;20069;-76
2023/09/15 01:59:15;;;;;;;15.48;7.05;;;538.20;2406.40;;;;;;5036216;28;20033;-76
2023/09/15 02:01:41;;;;;;;11.02;5.32;;;538.10;2406.40;;;;;;5036025;28;20036;-76
2023/09/15 02:04:07;;;;;;;10.15;4.97;;;538.10;2406.40;;;;;;5036162;28;20029;-76
2023/09/15 02:06:33;;;;;;;11.27;5.45;;;538.00;2406.40;;;;;;5022831;28;20056;-76
2023/09/15 02:08:59;;;;;;;8.60;4.57;;;538.10;2406.40;;;;;;5036084;28;20025;-76
2023/09/15 02:11:24;;;;;;;11.15;4.53;;;538.00;2406.40;;;;;;5035695;28;20025;-76
2023/09/15 02:13:50;;;;;;;8.00;4.55;;;538.00;2406.40;;;;;;5036056;28;20049;-76
2023/09/15 02:16:16;;;;;;;14.48;4.93;;;538.00;2406.40;;;;;;5017932;28;20026;-75
2023/09/15 02:18:42;;;;;;;8.50;5.05;;;537.90;2406.40;;;;;;5035909;28;20374;-76
2023/09/15 02:21:08;;;;;;;10.63;4.90;;;537.90;2406.40;;;;;;5035417;28;20041;-75
2023/09/15 02:23:34;;;;;;;9.25;4.82;;;537.90;2406.40;;;;;;5035754;28;20113;-76
2023/09/15 02:26:03;;;;;;;9.57;5.57;;;537.80;2406.40;;;;;;5035627;28;20040;-76
2023/09/15 02:28:30;;;;;;;10.30;5.30;;;537.80;2406.40;;;;;;5035651;28;20017;-76
2023/09/15 02:30:56;;;;;;;8.60;4.45;;;537.80;2406.40;;;;;;5035559;28;20021;-76
2023/09/15 02:33:22;;;;;;;8.10;4.60;;;537.80;2406.40;;;;;;5035639;28;20025;-76
2023/09/15 02:35:49;;;;;;;11.68;4.80;;;537.80;2406.40;;;;;;5035356;28;20080;-75
2023/09/15 02:38:14;;;;;;;7.80;3.88;;;537.80;2406.40;;;;;;5035683;28;20025;-75
2023/09/15 02:40:40;;;;;;;8.38;3.90;;;537.80;2406.40;;;;;;5017588;28;20036;-76
2023/09/15 02:43:08;;;;;;;11.80;4.18;;;537.80;2406.40;;;;;;5017605;28;20524;-76
2023/09/15 02:45:37;;;;;;;10.68;4.18;;;537.70;2406.40;;;;;;5035244;28;20025;-76
2023/09/15 02:48:04;;;;;;;5.50;3.40;;;537.70;2406.40;;;;;;5017341;28;20057;-76
2023/09/15 02:50:30;;;;;;;6.55;4.28;;;537.80;2406.40;;;;;;5034939;28;20061;-76
2023/09/15 02:52:56;;;;;;;6.13;4.18;;;537.90;2406.40;;;;;;5035121;28;20022;-76
2023/09/15 02:55:22;;;;;;;11.10;4.20;;;537.80;2406.40;;;;;;5031649;28;20386;-75
2023/09/15 02:57:54;;;;;;;7.53;4.57;;;537.80;2406.40;;;;;;5025374;28;20474;-75
2023/09/15 03:00:20;;;;;;;8.70;4.10;;;537.90;2406.40;;;;;;5034453;28;20018;-76
2023/09/15 03:02:47;;;;;;;10.63;4.50;;;537.80;2406.40;;;;;;5032831;28;20044;-75
2023/09/15 03:05:13;;;;;;;7.78;4.40;;;537.80;2406.40;;;;;;5034896;28;20119;-76
2023/09/15 03:07:39;;;;;;;8.50;4.57;;;537.80;2406.40;;;;;;5034975;28;20018;-76
2023/09/15 03:10:07;;;;;;;6.32;3.80;;;537.80;2406.40;;;;;;5034764;28;20156;-76
2023/09/15 03:12:33;;;;;;;8.20;4.43;;;537.90;2406.40;;;;;;5034789;28;20022;-76
2023/09/15 03:15:04;;;;;;;9.27;4.13;;;537.80;2406.40;;;;;;5034714;28;20048;-76
2023/09/15 03:17:29;;;;;;;9.63;4.13;;;537.80;2406.40;;;;;;5034886;28;20021;-76
2023/09/15 03:19:55;;;;;;;6.13;3.90;;;537.80;2406.40;;;;;;5034480;28;20049;-76
2023/09/15 03:22:21;;;;;;;7.32;4.03;;;537.90;2406.40;;;;;;5016925;28;20511;-76
2023/09/15 03:24:46;;;;;;;8.18;4.40;;;538.00;2406.40;;;;;;5016427;28;20048;-75
2023/09/15 03:27:12;;;;;;;8.95;4.88;;;538.00;2406.40;;;;;;5016840;28;20370;-76
2023/09/15 03:29:38;;;;;;;6.93;4.32;;;537.90;2406.40;;;;;;5034678;28;20129;-76
2023/09/15 03:32:03;;;;;;;6.85;4.72;;;537.80;2406.40;;;;;;5034380;28;20547;-76
2023/09/15 03:34:30;;;;;;;9.80;4.47;;;537.80;2406.40;;;;;;5034678;28;20120;-76
2023/09/15 03:36:56;;;;;;;7.57;4.47;;;537.80;2406.40;;;;;;5034609;28;20477;-76
2023/09/15 03:39:22;;;;;;;7.80;4.20;;;537.80;2406.40;;;;;;5034056;28;20056;-76
2023/09/15 03:41:48;;;;;;;9.10;4.55;;;537.90;2406.40;;;;;;5034162;28;20112;-76
2023/09/15 03:44:13;;;;;;;9.25;4.18;;;537.80;2406.40;;;;;;5033961;28;20078;-75
2023/09/15 03:46:39;;;;;;;7.80;4.30;;;537.80;2406.40;;;;;;5034245;28;20552;-76
2023/09/15 03:49:05;;;;;;;6.55;4.20;;;537.80;2406.40;;;;;;5033801;28;20025;-75
2023/09/15 03:51:31;;;;;;;10.07;4.20;;;537.80;2406.40;;;;;;5033931;28;20103;-76
2023/09/15 03:53:56;;;;;;;7.32;3.88;;;537.70;2406.40;;;;;;5033629;28;20473;-76
2023/09/15 03:56:23;;;;;;;13.65;4.10;;;537.70;2406.40;;;;;;5034057;28;20105;-76
2023/09/15 03:58:49;;;;;;;8.65;4.07;;;537.70;2406.40;;;;;;5033759;28;20057;-76
2023/09/15 04:01:19;;;;;;;12.48;4.53;;;537.80;2406.40;;;;;;5033782;28;20470;-75
2023/09/15 04:03:46;;;;;;;8.57;4.50;;;537.80;2406.40;;;;;;5033683;28;20017;-76
2023/09/15 04:06:11;;;;;;;7.50;4.30;;;537.70;2406.40;;;;;;5033806;28;20065;-76
2023/09/15 04:08:37;;;;;;;10.45;4.35;;;537.70;2406.40;;;;;;5026046;28;20056;-75
2023/09/15 04:11:03;;;;;;;14.68;4.05;;;537.70;2406.40;;;;;;5021382;28;20404;-75
2023/09/15 04:13:29;;;;;;;8.40;4.32;;;537.70;2406.40;;;;;;5024355;28;20092;-75
2023/09/15 04:15:56;;;;;;;8.02;3.88;;;537.70;2406.40;;;;;;4997329;28;20030;-75
2023/09/15 04:18:22;;;;;;;6.38;3.67;;;537.70;2406.40;;;;;;5025091;28;20026;-76
2023/09/15 04:20:51;;;;;;;6.45;4.15;;;537.70;2406.40;;;;;;5027349;28;20049;-76
2023/09/15 04:23:17;;;;;;;6.00;3.80;;;537.70;2406.40;;;;;;5024182;28;20489;-76
2023/09/15 04:25:43;;;;;;;6.40;4.68;;;537.70;2406.40;;;;;;5011260;28;20045;-75
2023/09/15 04:28:08;;;;;;;13.80;8.48;;;537.70;2406.40;;;;;;5030707;28;20017;-75
2023/09/15 04:30:36;;;;;;;10.88;6.93;;;512.90;2380.80;;;;;;5020906;28;20445;-75
2023/09/15 04:33:02;;;;;;;16.40;9.35;;;512.90;2380.80;;;;;;5022586;28;20032;-76
2023/09/15 04:35:28;;;;;;;89.43;45.60;;;512.90;2380.80;;;;;;5022957;28;20026;-75
2023/09/15 04:37:54;;;;;;;209.45;107.25;;;537.60;2406.40;;;;;;5013035;28;20236;-75
2023/09/15 04:40:20;;;;;;;188.25;99.63;;;537.60;2406.40;;;;;;5020587;28;20109;-75
2023/09/15 04:42:46;;;;;;;117.80;64.80;;;512.90;2380.80;;;;;;5020853;28;20025;-75
2023/09/15 04:45:12;;;;;;;115.30;66.50;;;537.60;2406.40;;;;;;5024513;28;20370;-75
2023/09/15 04:47:40;;;;;;;174.32;97.50;;;537.70;2406.40;;;;;;5018983;28;20371;-75
2023/09/15 04:50:07;;;;;;;188.77;114.03;;;537.70;2406.40;;;;;;5021889;28;20024;-75
2023/09/15 04:52:34;;;;;;;43.33;25.33;;;537.60;2406.40;;;;;;5029218;28;20056;-75
2023/09/15 04:54:59;;;;;;;30.70;18.63;;;512.90;2380.80;;;;;;5026811;28;20025;-75
2023/09/15 04:57:25;;;;;;;56.72;32.55;;;512.90;2380.80;;;;;;5024996;28;20022;-75
2023/09/15 04:59:54;;;;;;;34.08;18.58;;;537.60;2406.40;;;;;;5022176;28;20055;-76
2023/09/15 05:02:23;;;;;;;45.75;25.48;;;512.90;2380.80;;;;;;5019002;28;20033;-75
2023/09/15 05:04:51;;;;;;;138.15;77.20;;;537.60;2406.40;;;;;;5024884;28;20053;-75
2023/09/15 05:07:17;;;;;;;162.32;85.07;;;537.90;2406.40;;;;;;5023264;28;20025;-75
2023/09/15 05:09:42;;;;;;;134.40;69.28;;;537.60;2406.40;;;;;;5024440;28;20029;-76
2023/09/15 05:12:08;;;;;;;76.35;40.72;;;537.80;2406.40;;;;;;5012295;28;20029;-76
2023/09/15 05:14:34;;;;;;;88.30;49.75;;;537.80;2406.40;;;;;;5019934;28;20409;-76
2023/09/15 05:17:00;;;;;;;84.38;44.70;;;537.80;2406.40;;;;;;5028679;28;20461;-76
2023/09/15 05:19:25;;;;;;;82.72;45.50;;;537.80;2406.40;;;;;;5026585;28;20033;-77
2023/09/15 05:21:51;;;;;;;69.35;38.83;;;537.80;2406.40;;;;;;5025933;28;20036;-76
2023/09/15 05:24:17;;;;;;;48.70;24.08;;;537.90;2406.40;;;;;;5022927;28;20026;-75
2023/09/15 05:26:42;;;;;;;20.20;12.13;;;537.90;2406.40;;;;;;5024443;28;20034;-74
2023/09/15 05:29:08;;;;;;;15.40;9.20;;;538.00;2406.40;;;;;;5030437;28;20025;-75
2023/09/15 05:31:34;;;;;;;13.07;6.55;;;538.00;2406.40;;;;;;5015424;28;20543;-80
2023/09/15 05:34:00;;;;;;;9.52;5.68;;;538.00;2406.40;;;;;;5022279;28;20124;-79
2023/09/15 05:36:26;;;;;;;7.72;5.03;;;538.00;2406.40;;;;;;5024830;28;20544;-76
2023/09/15 05:38:52;;;;;;;5.68;4.20;;;538.00;2406.40;;;;;;5030760;28;20022;-76
2023/09/15 05:41:18;;;;;;;7.40;4.70;;;538.00;2406.40;;;;;;5028620;28;20026;-76
2023/09/15 05:43:44;;;;;;;7.82;4.80;;;538.00;2406.40;;;;;;5034673;28;20025;-76
2023/09/15 05:46:10;;;;;;;10.82;4.90;;;538.20;2406.40;;;;;;5024305;28;20571;-76
2023/09/15 05:48:36;;;;;;;7.20;4.80;;;538.20;2406.40;;;;;;5018237;28;20072;-75
2023/09/15 05:51:06;;;;;;;8.30;5.20;;;538.20;2406.40;;;;;;5027431;28;20022;-77
2023/09/15 05:53:32;;;;;;;6.65;4.72;;;538.20;2406.40;;;;;;5034065;28;20024;-76
2023/09/15 05:55:58;;;;;;;6.55;4.53;;;538.30;2406.40;;;;;;5034617;28;20030;-77
2023/09/15 05:58:24;;;;;;;12.23;4.68;;;538.50;2406.40;;;;;;5013848;28;20148;-76
2023/09/15 06:00:55;;;;;;;6.60;4.47;;;538.50;2406.40;;;;;;5016694;28;20151;-75
2023/09/15 06:03:25;;;;;;;11.55;4.80;;;538.50;2406.40;;;;;;5024794;28;20507;-75
2023/09/15 06:05:51;;;;;;;8.07;5.25;;;538.50;2406.40;;;;;;5022642;28;20056;-75
2023/09/15 06:08:19;;;;;;;9.35;5.05;;;563.20;2432.00;;;;;;5021768;28;20378;-75
2023/09/15 06:10:46;;;;;;;7.70;4.05;;;563.20;2432.00;;;;;;5029217;28;20036;-76
2023/09/15 06:13:12;;;;;;;8.38;4.85;;;563.40;2432.00;;;;;;5024134;28;20100;-75
2023/09/15 06:15:38;;;;;;;9.48;5.40;;;563.40;2432.00;;;;;;5025713;28;20131;-75
2023/09/15 06:18:03;;;;;;;9.98;5.38;;;563.60;2432.00;;;;;;5026487;28;20493;-76
2023/09/15 06:20:33;;;;;;;16.13;4.65;;;563.70;2432.00;;;;;;5022281;28;20374;-76
2023/09/15 06:22:59;;;;;;;7.70;4.35;;;563.80;2432.00;;;;;;5028704;28;20029;-77
2023/09/15 06:25:25;;;;;;;10.38;4.93;;;564.00;2432.00;;;;;;5024619;28;20109;-77
2023/09/15 06:27:51;;;;;;;11.45;5.10;;;564.10;2432.00;;;;;;5025535;28;20398;-76
2023/09/15 06:30:17;;;;;;;10.23;5.03;;;588.80;2432.00;;;;;;5030870;28;20087;-76
2023/09/15 06:32:42;;;;;;;8.40;4.57;;;588.80;2432.00;;;;;;5009323;28;20478;-77
2023/09/15 06:35:13;;;;;;;6.53;4.43;;;588.90;2432.00;;;;;;5006842;28;20061;-76
2023/09/15 06:37:42;;;;;;;10.32;4.80;;;589.00;2432.00;;;;;;5014739;28;20029;-77
2023/09/15 06:40:08;;;;;;;10.32;5.07;;;589.30;2432.00;;;;;;5030398;28;20018;-76
2023/09/15 06:42:34;;;;;;;7.28;4.47;;;589.50;2432.00;;;;;;5030705;28;20022;-76
2023/09/15 06:45:00;;;;;;;6.82;4.75;;;589.50;2432.00;;;;;;5029277;28;20389;-76
2023/09/15 06:47:26;;;;;;;6.70;4.70;;;589.70;2432.00;;;;;;5028978;28;20029;-76
2023/09/15 06:49:52;;;;;;;7.35;4.85;;;614.40;2432.00;;;;;;5025058;28;20032;-75
2023/09/15 06:52:17;;;;;;;7.53;4.10;;;614.40;2432.00;;;;;;5024098;28;20034;-76
2023/09/15 06:54:43;;;;;;;6.97;4.57;;;614.70;2432.00;;;;;;5020783;28;20485;-76
2023/09/15 06:57:09;;;;;;;7.63;4.47;;;614.90;2432.00;;;;;;5031785;28;20032;-76
2023/09/15 06:59:35;;;;;;;7.35;4.10;;;615.00;2432.00;;;;;;5031118;28;20037;-76
2023/09/15 07:02:02;;;;;;;7.80;4.07;;;615.10;2432.00;;;;;;5031709;28;20026;-75
2023/09/15 07:04:29;;;;;;;10.77;4.65;;;615.20;2432.00;;;;;;5027316;28;20027;-76
2023/09/15 07:06:54;;;;;;;9.90;4.13;;;640.00;2432.00;;;;;;5034944;28;20041;-75
2023/09/15 07:09:20;;;;;;;5.55;3.63;;;640.40;2432.00;;;;;;5024827;28;20091;-75
2023/09/15 07:11:46;;;;;;;10.13;4.20;;;640.40;2432.00;;;;;;5025978;28;20068;-76
2023/09/15 07:14:12;;;;;;;10.07;4.63;;;640.60;2432.00;;;;;;5026399;28;20021;-76
2023/09/15 07:16:37;;;;;;;6.57;4.00;;;640.80;2432.00;;;;;;5024998;28;20026;-76
2023/09/15 07:19:03;;;;;;;7.07;4.47;;;665.60;2432.00;;;;;;5028395;28;20080;-77
2023/09/15 07:21:29;;;;;;;7.63;4.65;;;665.80;2432.00;;;;;;5022944;28;20052;-78
2023/09/15 07:23:55;;;;;;;5.63;4.25;;;665.90;2432.00;;;;;;5025999;28;20033;-78
2023/09/15 07:26:24;;;;;;;8.00;3.80;;;666.00;2432.00;;;;;;5027562;28;20072;-76
2023/09/15 07:28:50;;;;;;;4.95;3.58;;;666.00;2432.00;;;;;;5024298;28;20057;-75
2023/09/15 07:31:15;;;;;;;7.97;4.50;;;665.70;2432.00;;;;;;5023665;28;20069;-76
2023/09/15 07:33:44;;;;;;;7.78;4.35;;;665.80;2432.00;;;;;;5022462;28;20022;-76
2023/09/15 07:36:10;;;;;;;15.02;3.90;;;666.40;2432.00;;;;;;5006667;28;20025;-77
2023/09/15 07:38:36;;;;;;;6.88;4.05;;;691.30;2432.00;;;;;;5023216;28;20484;-76
2023/09/15 07:41:01;;;;;;;5.47;3.33;;;665.80;2432.00;;;;;;5016814;28;20042;-75
2023/09/15 07:43:28;;;;;;;6.50;3.95;;;665.60;2432.00;;;;;;5029356;28;20100;-76
2023/09/15 07:45:53;;;;;;;9.63;4.22;;;666.30;2432.00;;;;;;5021248;28;20116;-76
2023/09/15 07:48:21;;;;;;;7.70;3.78;;;666.20;2432.00;;;;;;5027600;28;20032;-76
2023/09/15 07:50:47;;;;;;;5.15;4.03;;;666.20;2432.00;;;;;;5021934;28;20378;-75
2023/09/15 07:53:14;;;;;;;5.60;4.00;;;665.90;2432.00;;;;;;5026426;28;20026;-75
2023/09/15 07:55:39;;;;;;;10.10;6.22;;;665.70;2432.00;;;;;;5006558;28;20462;-76
2023/09/15 07:58:05;;;;;;;22.33;13.18;;;640.90;2432.00;;;;;;5022275;28;20037;-76
2023/09/15 08:00:31;;;;;;;7.82;4.93;;;640.70;2432.00;;;;;;5010328;28;20061;-77
2023/09/15 08:02:57;;;;;;;6.47;4.63;;;640.50;2432.00;;;;;;5025785;28;20033;-76
2023/09/15 08:05:23;;;;;;;7.80;4.45;;;640.50;2432.00;;;;;;5019028;28;20461;-75
2023/09/15 08:07:49;;;;;;;8.73;4.97;;;640.50;2432.00;;;;;;5029894;28;20026;-75
2023/09/15 08:10:18;;;;;;;8.40;4.60;;;640.70;2432.00;;;;;;5023129;28;20041;-75
2023/09/15 08:12:44;;;;;;;7.93;3.85;;;640.50;2432.00;;;;;;5026665;28;20116;-75
2023/09/15 08:15:10;;;;;;;7.90;4.45;;;640.50;2432.00;;;;;;5021785;28;20118;-74
2023/09/15 08:17:36;;;;;;;13.50;4.70;;;640.40;2432.00;;;;;;5027230;28;20030;-76
2023/09/15 08:20:03;;;;;;;5.65;4.18;;;640.60;2432.00;;;;;;5027191;28;20041;-77
2023/09/15 08:22:30;;;;;;;7.55;4.22;;;665.70;2432.00;;;;;;5028758;28;20469;-77
2023/09/15 08:24:56;;;;;;;8.35;4.63;;;666.20;2432.00;;;;;;5027063;28;20032;-75
2023/09/15 08:27:21;;;;;;;7.00;5.25;;;666.20;2432.00;;;;;;5022230;28;20053;-76
2023/09/15 08:29:47;;;;;;;8.07;6.88;;;666.40;2406.40;;;;;;5025213;28;20346;-77
2023/09/15 08:32:14;;;;;;;5.88;3.75;;;666.20;2432.00;;;;;;5027814;28;20392;-78
2023/09/15 08:34:41;;;;;;;7.03;3.97;;;666.20;2432.00;;;;;;5029364;28;20024;-75
2023/09/15 08:37:07;;;;;;;7.43;3.70;;;666.30;2432.00;;;;;;5028631;28;20492;-76
2023/09/15 08:39:32;;;;;;;6.63;3.42;;;666.20;2432.00;;;;;;5024548;28;20026;-76
2023/09/15 08:42:02;;;;;;;6.07;4.22;;;666.20;2432.00;;;;;;5022899;28;20029;-76
2023/09/15 08:44:31;;;;;;;8.02;5.18;;;666.10;2432.00;;;;;;5026977;28;20037;-76
2023/09/15 08:47:00;;;;;;;6.40;5.05;;;666.20;2432.00;;;;;;5024812;28;20037;-76
2023/09/15 08:49:27;;;;;;;9.38;4.10;;;666.30;2406.40;;;;;;5011554;28;20116;-76
2023/09/15 08:51:55;;;;;;;4.80;3.58;;;691.20;2380.80;;;;;;5022504;28;20026;-76
2023/09/15 08:54:22;;;;;;;6.07;4.38;;;691.30;2329.60;;;;;;5025733;28;20550;-75
2023/09/15 08:56:48;;;;;;;17.73;10.90;;;691.30;2355.20;;;;;;5028302;28;20389;-76
2023/09/15 08:59:17;;;;;;;9.20;5.78;;;691.20;2355.20;;;;;;5026424;28;20025;-76
2023/09/15 09:01:43;;;;;;;7.25;3.70;;;691.20;2355.20;;;;;;5021483;28;20473;-76
2023/09/15 09:04:10;;;;;;;4.47;3.65;;;691.60;2252.80;;;;;;5021862;28;20041;-75
2023/09/15 09:06:37;;;;;;;7.97;3.70;;;691.60;2252.80;;;;;;5026203;28;20034;-75
2023/09/15 09:09:04;;;;;;;6.70;4.28;;;716.80;2252.80;;;;;;5025705;28;20022;-75
2023/09/15 09:11:30;;;;;;;7.30;3.90;;;691.70;2201.60;;;;;;5026998;28;20048;-75
2023/09/15 09:13:57;;;;;;;6.00;4.03;;;691.50;2252.80;;;;;;5026383;28;20022;-75
2023/09/15 09:16:22;;;;;;;10.27;4.30;;;691.30;2278.40;;;;;;5025701;28;20021;-75
2023/09/15 09:19:00;;;;;;;7.45;3.70;;;691.20;2252.80;;;;;;5025082;28;20071;-75
2023/09/15 09:21:31;;;;;;;8.40;4.63;;;666.40;2304.00;;;;;;5028763;28;20037;-75
2023/09/15 09:23:57;;;;;;;10.05;5.72;;;691.30;2329.60;;;;;;5028536;28;20061;-75
2023/09/15 09:26:24;;;;;;;8.02;4.85;;;691.40;2278.40;;;;;;5022671;28;20041;-75
2023/09/15 09:28:54;;;;;;;8.77;4.80;;;691.40;2252.80;;;;;;5023880;28;20026;-76
2023/09/15 09:31:21;;;;;;;5.30;3.40;;;691.40;2252.80;;;;;;5027456;28;20037;-77
2023/09/15 09:33:48;;;;;;;6.18;4.38;;;691.20;2252.80;;;;;;5024261;28;20025;-75
2023/09/15 09:36:15;;;;;;;7.72;3.70;;;666.30;2304.00;;;;;;5024462;28;20492;-74
2023/09/15 09:38:42;;;;;;;10.85;3.78;;;666.10;2304.00;;;;;;5017609;28;20133;-75
2023/09/15 09:41:10;;;;;;;4.65;3.85;;;666.20;2329.60;;;;;;5028941;28;20032;-75
2023/09/15 09:43:38;;;;;;;5.10;3.88;;;666.30;2329.60;;;;;;5022059;28;20033;-75
2023/09/15 09:46:06;;;;;;;4.88;3.00;;;666.20;2329.60;;;;;;5020740;28;20060;-75
2023/09/15 09:48:34;;;;;;;6.13;3.40;;;666.20;2355.20;;;;;;5021133;28;20022;-74
2023/09/15 09:51:04;;;;;;;5.38;2.85;;;666.10;2329.60;;;;;;5021900;28;20156;-75
2023/09/15 09:53:32;;;;;;;10.52;2.95;;;666.00;2355.20;;;;;;5027062;28;20037;-75
2023/09/15 09:56:04;;;;;;;6.65;3.10;;;666.00;2380.80;;;;;;5026301;28;20092;-73
2023/09/15 09:58:36;;;;;;;5.75;2.75;;;666.00;2380.80;;;;;;5025158;28;20025;-74
2023/09/15 10:01:04;;;;;;;5.55;2.50;;;666.00;2329.60;;;;;;5025948;28;20405;-75
2023/09/15 10:03:30;;;;;;;5.10;2.47;;;666.10;2329.60;;;;;;5026683;28;20013;-74
2023/09/15 10:05:57;;;;;;;3.35;2.42;;;666.20;2304.00;;;;;;5023572;28;20033;-75
2023/09/15 10:08:22;;;;;;;4.85;3.22;;;666.20;2304.00;;;;;;5025455;28;20422;-75
2023/09/15 10:10:50;;;;;;;6.55;3.45;;;666.40;2304.00;;;;;;5023865;28;20132;-74
2023/09/15 10:13:17;;;;;;;9.00;3.67;;;666.30;2329.60;;;;;;5021096;28;20028;-76
2023/09/15 10:15:44;;;;;;;9.48;3.00;;;666.40;2278.40;;;;;;5025470;28;20022;-74
2023/09/15 10:18:12;;;;;;;8.43;3.00;;;666.30;2304.00;;;;;;5025297;28;20060;-75
2023/09/15 10:20:47;;;;;;;5.43;3.25;;;666.40;2278.40;;;;;;5032231;28;20048;-75
2023/09/15 10:23:13;;;;;;;5.05;2.83;;;666.40;2304.00;;;;;;5026353;28;20026;-75
2023/09/15 10:25:51;;;;;;;5.07;2.50;;;666.20;2278.40;;;;;;5026866;28;20104;-74
2023/09/15 10:28:17;;;;;;;7.70;3.28;;;666.20;2304.00;;;;;;5020330;28;20424;-74
2023/09/15 10:30:43;;;;;;;5.78;3.40;;;666.20;2304.00;;;;;;5027096;28;20021;-74
2023/09/15 10:33:10;;;;;;;4.13;2.90;;;666.20;2329.60;;;;;;5029385;28;20029;-75
2023/09/15 10:35:45;;;;;;;8.48;3.20;;;666.20;2278.40;;;;;;5021567;28;20100;-74
2023/09/15 10:38:11;;;;;;;6.90;3.17;;;666.20;2304.00;;;;;;5026416;28;20057;-74
2023/09/15 10:40:48;;;;;;;7.15;3.28;;;666.20;2304.00;;;;;;5022502;28;20295;-74
2023/09/15 10:43:17;;;;;;;5.13;2.78;;;666.50;2252.80;;;;;;5020868;28;20033;-75
2023/09/15 10:46:02;;;;;;;5.68;3.05;;;666.50;2252.80;;;;;;5029089;28;20029;-74
2023/09/15 10:48:46;;;;;;;3.40;2.67;;;666.50;2227.20;;;;;;5022137;28;20025;-75
2023/09/15 10:51:17;;;;;;;3.67;2.88;;;691.20;2252.80;;;;;;5029089;28;20424;-74
2023/09/15 10:53:50;;;;;;;9.05;3.00;;;691.30;2252.80;;;;;;5020190;28;20013;-75
2023/09/15 10:56:17;;;;;;;4.32;2.90;;;691.60;2227.20;;;;;;5031423;28;20033;-74
2023/09/15 10:58:48;;;;;;;4.78;2.63;;;692.00;2150.40;;;;;;5030692;28;20017;-75
2023/09/15 11:01:18;;;;;;;3.90;2.50;;;692.00;2150.40;;;;;;5029418;28;20053;-75
2023/09/15 11:03:44;;;;;;;5.07;2.75;;;692.00;2150.40;;;;;;5022370;28;20022;-75
2023/09/15 11:06:12;;;;;;;6.43;2.90;;;692.00;2099.20;;;;;;5025273;28;20037;-74
2023/09/15 11:08:39;;;;;;;8.65;4.25;;;691.90;2150.40;;;;;;5030335;28;20018;-75
2023/09/15 11:11:08;;;;;;;6.13;3.35;;;691.70;2124.80;;;;;;5028300;28;20454;-74
2023/09/15 11:13:35;;;;;;;7.18;3.67;;;691.50;2150.40;;;;;;5028642;28;20013;-74
2023/09/15 11:16:01;;;;;;;6.75;3.80;;;691.30;2176.00;;;;;;5025406;28;20025;-75
2023/09/15 11:18:27;;;;;;;5.40;3.13;;;666.50;2201.60;;;;;;5024984;28;20068;-75
2023/09/15 11:20:55;;;;;;;5.50;3.20;;;666.30;2227.20;;;;;;5027855;28;20053;-74
2023/09/15 11:23:24;;;;;;;4.60;2.78;;;666.20;2227.20;;;;;;5024575;28;20044;-76
2023/09/15 11:26:06;;;;;;;4.55;2.40;;;666.00;2252.80;;;;;;5028989;28;20029;-75
2023/09/15 11:28:32;;;;;;;5.82;3.13;;;666.10;2227.20;;;;;;5024688;28;20021;-74
2023/09/15 11:30:59;;;;;;;6.75;3.20;;;666.00;2227.20;;;;;;5024536;28;20040;-74
2023/09/15 11:33:25;;;;;;;5.05;2.63;;;666.20;2278.40;;;;;;5027969;28;20123;-73
2023/09/15 11:35:51;;;;;;;11.00;5.13;;;666.30;2252.80;;;;;;5025560;28;20026;-73
2023/09/15 11:38:18;;;;;;;5.35;3.30;;;666.50;2227.20;;;;;;5023210;28;20025;-72
2023/09/15 11:40:48;;;;;;;6.40;3.72;;;666.50;2252.80;;;;;;5021195;28;20381;-72
2023/09/15 11:43:14;;;;;;;8.18;2.88;;;691.40;2201.60;;;;;;5023161;28;20480;-73
2023/09/15 11:45:42;;;;;;;6.72;2.65;;;691.80;2150.40;;;;;;5028820;28;20025;-72
2023/09/15 11:48:10;;;;;;;5.07;2.60;;;716.90;2124.80;;;;;;5029547;28;20029;-73
2023/09/15 11:50:36;;;;;;;4.97;2.42;;;717.20;2048.00;;;;;;5029318;28;20075;-73
2023/09/15 11:53:03;;;;;;;5.03;2.90;;;;;;;;;;5022002;28;20038;-73
2023/09/15 11:55:30;;;;;;;7.13;3.55;;;742.60;2022.40;;;;;;5022018;28;20026;-73
2023/09/15 11:57:57;;;;;;;4.55;3.00;;;;;;;;;;5023631;28;20022;-74
2023/09/15 12:00:27;;;;;;;6.13;3.70;;;743.30;1945.60;;;;;;5030784;28;20457;-73
2023/09/15 12:02:54;;;;;;;5.10;3.10;;;743.30;1920.00;;;;;;5020262;28;20033;-75
2023/09/15 12:05:22;;;;;;;4.75;2.90;;;742.80;1971.20;;;;;;5021943;28;20030;-76
2023/09/15 12:07:48;;;;;;;5.80;3.58;;;742.60;1945.60;;;;;;5023456;28;20025;-72
2023/09/15 12:10:16;;;;;;;8.73;4.93;;;742.70;1945.60;;;;;;5032560;28;20025;-73
2023/09/15 12:12:43;;;;;;;5.68;2.55;;;742.50;1971.20;;;;;;5030093;28;20481;-73
2023/09/15 12:15:09;;;;;;;7.20;2.80;;;717.70;1945.60;;;;;;5024186;28;20022;-72